Gatesville, TX (76599)

6:43 PM CST on December 17, 2014 (GMT -0600)
Rhudys on Cedar Ridge | Change Station
CLOSE
Current Station
Personal Weather Station
Location: Gatesville, TX
Elevation: 1043 ft
Nearby Weather Stations

Elev 1043 ft 31.45 °N, 97.70 °W | Updated 7 seconds ago

Overcast
Overcast
46.2 °F
Feels Like 46 °F
N
0.0
Wind Variable Wind from ESE
Gusts 0.0 mph

Today
High -- | Low -- °F
--% Chance of Precip.
Yesterday
High -- | Low -- °F
Precip. -- in
7:23 AM 5:30 PM
Waning Crescent, 18% visible
Pressure 30.11 in
Visibility 10.0 miles
Clouds Overcast 1000 ft
Windchill 46 °F
Dew Point 43 °F
Humidity 88%
Rainfall 0.00 in
Snow Depth Not available.
UV 0 out of 12
Pollen 7.70 out of 12
Air Quality Not available.
Flu Activity Not available.
METAR KGOP 180035Z AUTO 00000KT 10SM OVC010 08/06 A3011 RMK AO2 PWINO

More Conditions Fewer Conditions

Pressure 30.11 in
Visibility 10.0 miles
Clouds Overcast 1000 ft
Windchill 46 °F
Dew Point 43 °F
Humidity 88%
Rainfall 0.00 in
Snow Depth Not available.
UV 0 out of 12
Pollen 7.70 out of 12
Air Quality Not available.
Flu Activity Not available.
METAR KGOP 180035Z AUTO 00000KT 10SM OVC010 08/06 A3011 RMK AO2 PWINO

More Conditions Fewer Conditions

Nowcast | as of 6:42 PM CST on December 17, 2014

Widely scattered showers and drizzle will continue moving to the northeast across north and central Texas this evening. Additional rainfall will not amount to much...with less than one tenth of an inch possible. The showers will taper off from west to east over the next several hours. Elsewhere...skies will be cloudy with temperatures falling into the low 40s and upper 30s.

×

10-Day Weather Forecast

Almanac

Astronomy

Dec. 17, 2014 Rise Set
Actual Time
Civil Twilight
Nautical Twilight
Astronomical Twilight
Moon
Length of Visible Light
Length of Day
Tomorrow will be .
, % of the Moon is Illuminated

Today's Extremes

State Highs State Lows

Community

WunderPhotos

Upload Photos

1,778,837 photos uploaded!

WunderBlogs® & News

Nearby

Air Quality

  Air Quality AQ Index Pollutant
Not available.

Snow Depth

Station Depth Elevation

Earthquake Activity

City Distance Mag. Time & Date
Minimum magnitude displayed is 2.5.

Coastal Water Temperatures

Place Temperature

Nearby Weather Stations